createdAt,value
2018-11-12T00:01:51.731Z,31.43
2018-11-12T00:07:46.731Z,27.47
2018-11-12T00:13:41.730Z,22.88
2018-11-12T00:19:36.725Z,28.8
2018-11-12T00:25:31.732Z,22.87
2018-11-12T00:31:26.746Z,23.17
2018-11-12T00:37:21.754Z,20.13
2018-11-12T00:43:16.727Z,20.6
2018-11-12T00:49:11.744Z,22.23
2018-11-12T00:55:06.729Z,26.07
2018-11-12T01:01:01.904Z,23
2018-11-12T01:06:56.745Z,25.9
2018-11-12T01:12:51.788Z,28.94
2018-11-12T01:18:46.762Z,24.16
2018-11-12T01:24:41.765Z,24.53
2018-11-12T01:30:36.767Z,29.7
2018-11-12T01:36:31.805Z,40.97
2018-11-12T01:42:26.774Z,20.14
2018-11-12T01:48:21.801Z,27.66
2018-11-12T01:54:16.772Z,29.59
2018-11-12T02:00:11.791Z,28.01
2018-11-12T02:06:06.770Z,28.52
2018-11-12T02:12:01.805Z,34.38
2018-11-12T02:17:56.789Z,29.37
2018-11-12T02:23:51.801Z,42.17
2018-11-12T02:29:46.808Z,26.87
2018-11-12T02:35:41.822Z,29.99
2018-11-12T02:41:36.841Z,24.26
2018-11-12T02:47:31.806Z,24.73
2018-11-12T02:53:26.849Z,29.63
2018-11-12T02:59:21.821Z,28.46
2018-11-12T03:05:16.886Z,30.08
2018-11-12T03:11:11.836Z,27.9
2018-11-12T03:17:06.861Z,29.03
2018-11-12T03:23:01.885Z,29.08
2018-11-12T03:28:56.854Z,27.47
2018-11-12T03:34:51.847Z,26.54
2018-11-12T03:40:46.842Z,25.89
2018-11-12T03:46:41.843Z,27.4
2018-11-12T03:52:36.852Z,26.73
2018-11-12T03:58:31.863Z,25.63
2018-11-12T04:04:26.897Z,25.92
2018-11-12T04:10:21.880Z,28.93
2018-11-12T04:16:16.903Z,25.15
2018-11-12T04:22:11.887Z,27.96
2018-11-12T04:28:06.862Z,25.19
2018-11-12T04:34:01.894Z,21.28
2018-11-12T04:39:56.877Z,25.4
2018-11-12T04:45:51.890Z,23.35
2018-11-12T04:51:46.905Z,20.83
2018-11-12T04:57:41.893Z,20.15
2018-11-12T05:03:36.888Z,23.98
2018-11-12T05:09:31.890Z,25.27
2018-11-12T05:15:26.915Z,26.17
2018-11-12T05:21:21.939Z,21.64
2018-11-12T05:27:16.975Z,21.49
2018-11-12T05:33:11.935Z,24.38
2018-11-12T05:39:06.916Z,24.1
2018-11-12T05:45:02.040Z,23.41
2018-11-12T05:50:56.906Z,17.5
2018-11-12T05:56:51.941Z,22.37
2018-11-12T06:02:46.936Z,24.4
2018-11-12T06:08:41.956Z,22.55
2018-11-12T06:14:36.954Z,21.89
2018-11-12T06:20:31.952Z,18.57
2018-11-12T06:26:26.996Z,21.1
2018-11-12T06:32:21.964Z,22.66
2018-11-12T06:38:16.932Z,22.73
2018-11-12T06:44:11.970Z,19.31
2018-11-12T06:50:06.972Z,26.49
2018-11-12T06:56:01.960Z,19.52
2018-11-12T07:01:56.966Z,21.18
2018-11-12T07:07:51.958Z,20.87
2018-11-12T07:13:47.051Z,21.46
2018-11-12T07:19:41.995Z,21.52
2018-11-12T07:25:36.978Z,23.98
2018-11-12T07:31:31.976Z,17.89
2018-11-12T07:37:27.014Z,22.16
2018-11-12T07:43:21.982Z,20.19
2018-11-12T07:49:16.994Z,22.21
2018-11-12T07:55:12.013Z,19.86
2018-11-12T08:01:07.010Z,20.61
2018-11-12T08:07:02.049Z,20.22
2018-11-12T08:12:57.024Z,24.96
2018-11-12T08:18:52.015Z,23.39
2018-11-12T08:24:47.119Z,25.17
2018-11-12T08:30:42.029Z,22.91
2018-11-12T08:36:37.165Z,25.63
2018-11-12T08:42:32.036Z,25.8
2018-11-12T08:48:27.105Z,26.06
2018-11-12T08:54:22.053Z,23.4
2018-11-12T09:00:17.049Z,24.77
2018-11-12T09:06:12.029Z,27.87
2018-11-12T09:12:07.085Z,27.28
2018-11-12T09:18:02.085Z,26.21
2018-11-12T09:23:57.104Z,21.7
2018-11-12T09:29:52.160Z,25.05
2018-11-12T09:35:47.104Z,19.95
2018-11-12T09:41:42.091Z,16.64
2018-11-12T09:47:37.149Z,22.15
2018-11-12T09:53:32.122Z,17.94
2018-11-12T09:59:27.202Z,20.99
2018-11-12T10:05:23.416Z,26.4
2018-11-12T10:11:19.283Z,18.93
2018-11-12T10:17:15.360Z,9.58
2018-11-12T10:23:07.112Z,11.71
2018-11-12T10:29:02.123Z,72.91
2018-11-12T10:34:57.153Z,32.8
2018-11-12T10:40:52.160Z,10.4
2018-11-12T10:46:47.146Z,8.64
2018-11-12T10:52:42.160Z,11.59
2018-11-12T10:58:37.236Z,7.59
2018-11-12T11:04:32.172Z,8.45
2018-11-12T11:10:27.212Z,6.78
2018-11-12T11:16:22.152Z,11.24
2018-11-12T11:22:17.161Z,13.32
2018-11-12T11:28:12.202Z,9.27
2018-11-12T11:34:07.182Z,9.03
2018-11-12T11:40:02.338Z,6.02
2018-11-12T11:45:57.154Z,6.51
2018-11-12T11:51:52.254Z,9.07
2018-11-12T11:57:47.254Z,9.57
2018-11-12T12:03:42.177Z,8.6
2018-11-12T12:09:37.171Z,6.76
2018-11-12T12:15:32.176Z,6.98
2018-11-12T12:21:27.162Z,10.53
2018-11-12T12:27:22.172Z,5.18
2018-11-12T12:33:17.233Z,9.22
2018-11-12T12:39:12.200Z,10.88
2018-11-12T12:45:07.218Z,8.64
2018-11-12T12:51:02.209Z,10.23
2018-11-12T12:56:57.194Z,11.9
2018-11-12T13:02:52.256Z,5.38
2018-11-12T13:08:47.222Z,10.72
2018-11-12T13:14:42.316Z,8.55
2018-11-12T13:20:37.217Z,8.38
2018-11-12T13:26:32.254Z,12.72
2018-11-12T13:32:27.231Z,6.02
2018-11-12T13:38:22.218Z,4.07
2018-11-12T13:44:17.200Z,6.86
2018-11-12T13:50:12.226Z,5.38
2018-11-12T13:56:07.215Z,10.85
2018-11-12T14:02:02.253Z,11.41
2018-11-12T14:07:57.244Z,6.29
2018-11-12T14:13:52.268Z,6.85
2018-11-12T14:19:47.243Z,6.93
2018-11-12T14:25:42.255Z,6.24
2018-11-12T14:31:37.210Z,5.4
2018-11-12T14:37:32.275Z,7.02
2018-11-12T14:43:27.274Z,6.95
2018-11-12T14:49:22.296Z,3.83
2018-11-12T14:55:17.265Z,8.07
2018-11-12T15:01:12.257Z,6.89
2018-11-12T15:07:07.270Z,4.83
2018-11-12T15:13:02.270Z,7.07
2018-11-12T15:18:57.262Z,5.65
2018-11-12T15:24:52.290Z,11.08
2018-11-12T15:30:47.273Z,16.51
2018-11-12T15:36:42.406Z,5.64
2018-11-12T15:42:37.272Z,8.37
2018-11-12T15:48:32.282Z,12.56
2018-11-12T15:54:27.295Z,6.94
2018-11-12T16:00:22.299Z,18.24
2018-11-12T16:06:17.330Z,7.36
2018-11-12T16:12:12.368Z,11.39
2018-11-12T16:18:07.305Z,16.42
2018-11-12T16:24:02.307Z,15.68
2018-11-12T16:29:57.343Z,21.27
2018-11-12T16:35:52.299Z,18.85
2018-11-12T16:41:47.327Z,23.59
2018-11-12T16:47:42.363Z,26.82
2018-11-12T16:53:37.322Z,19.37
2018-11-12T16:59:32.331Z,21.83
2018-11-12T17:05:27.364Z,14.5
2018-11-12T17:11:22.445Z,19.93
2018-11-12T17:17:17.373Z,18.21
2018-11-12T17:23:12.367Z,15.19
2018-11-12T17:29:07.332Z,21.14
2018-11-12T17:35:02.397Z,24.35
2018-11-12T17:40:57.343Z,22.53
2018-11-12T17:46:52.355Z,20.27
2018-11-12T17:52:47.364Z,13.89
2018-11-12T17:58:42.359Z,21.83
2018-11-12T18:04:37.363Z,30.93
2018-11-12T18:10:32.370Z,28.07
2018-11-12T18:16:27.371Z,29.13
2018-11-12T18:22:22.394Z,29.98
2018-11-12T18:28:17.393Z,21.74
2018-11-12T18:34:12.380Z,26.82
2018-11-12T18:40:07.380Z,19.57
2018-11-12T18:46:02.394Z,20.2
2018-11-12T18:51:57.376Z,17.52
2018-11-12T18:57:52.392Z,23.3
2018-11-12T19:03:47.400Z,22.01
2018-11-12T19:09:42.389Z,24.36
2018-11-12T19:15:37.484Z,31.8
2018-11-12T19:21:32.430Z,27.82
2018-11-12T19:27:27.420Z,24.67
2018-11-12T19:33:22.422Z,34.09
2018-11-12T19:39:17.413Z,36.44
2018-11-12T19:45:12.419Z,27.13
2018-11-12T19:51:07.481Z,24.79
2018-11-12T19:57:02.432Z,23.62
2018-11-12T20:02:57.475Z,25.63
2018-11-12T20:08:52.460Z,23.52
2018-11-12T20:14:47.449Z,23.26
2018-11-12T20:20:42.461Z,26.83
2018-11-12T20:26:37.451Z,21.11
2018-11-12T20:32:32.511Z,17.57
2018-11-12T20:38:27.454Z,21.38
2018-11-12T20:44:22.455Z,20.96
2018-11-12T20:50:17.496Z,16.82
2018-11-12T20:56:12.472Z,24.55
2018-11-12T21:02:07.480Z,21.67
2018-11-12T21:08:02.498Z,16.2
2018-11-12T21:13:57.521Z,53.67
2018-11-12T21:19:52.486Z,16.78
2018-11-12T21:25:47.501Z,19.93
2018-11-12T21:31:42.530Z,17.85
2018-11-12T21:37:37.494Z,16.81
2018-11-12T21:43:32.713Z,18.79
2018-11-12T21:49:27.611Z,16.39
2018-11-12T21:55:22.563Z,18.18
2018-11-12T22:01:17.540Z,20.52
2018-11-12T22:07:12.510Z,21.36
2018-11-12T22:13:07.539Z,47.1
2018-11-12T22:19:02.634Z,31.22
2018-11-12T22:24:57.534Z,21.22
2018-11-12T22:30:52.531Z,18.73
2018-11-12T22:36:47.600Z,16.87
2018-11-12T22:42:42.537Z,17.5
2018-11-12T22:48:37.558Z,22.26
2018-11-12T22:54:32.606Z,21.94
2018-11-12T23:00:27.550Z,18.96
2018-11-12T23:06:22.575Z,16.85
2018-11-12T23:12:17.624Z,21.57
2018-11-12T23:18:12.546Z,14.64
2018-11-12T23:24:07.562Z,12.73
2018-11-12T23:30:02.578Z,14.77
2018-11-12T23:35:57.618Z,16.64
2018-11-12T23:41:52.561Z,12.1
2018-11-12T23:47:47.571Z,18.41
2018-11-12T23:53:42.638Z,16.6
2018-11-12T23:59:37.579Z,16.73
